sensor_id;sensor_type;location;lat;lon;timestamp;pressure;altitude;pressure_sealevel;temperature;humidity
28428;BME280;15662;49.128;8.520;2023-04-07T00:01:51;100450.34;;;14.72;44.60
28428;BME280;15662;49.128;8.520;2023-04-07T00:04:19;100457.63;;;14.68;44.80
28428;BME280;15662;49.128;8.520;2023-04-07T00:06:47;100453.28;;;14.66;44.74
28428;BME280;15662;49.128;8.520;2023-04-07T00:09:15;100457.75;;;14.65;44.65
28428;BME280;15662;49.128;8.520;2023-04-07T00:11:43;100461.28;;;14.66;44.78
28428;BME280;15662;49.128;8.520;2023-04-07T00:14:11;100445.38;;;14.63;44.86
28428;BME280;15662;49.128;8.520;2023-04-07T00:16:39;100453.19;;;14.67;44.85
28428;BME280;15662;49.128;8.520;2023-04-07T00:19:07;100449.66;;;14.67;44.96
28428;BME280;15662;49.128;8.520;2023-04-07T00:21:35;100448.69;;;14.69;44.97
28428;BME280;15662;49.128;8.520;2023-04-07T00:24:03;100431.13;;;14.64;44.89
28428;BME280;15662;49.128;8.520;2023-04-07T00:26:31;100431.25;;;14.61;44.99
28428;BME280;15662;49.128;8.520;2023-04-07T00:29:00;100442.59;;;14.66;44.94
28428;BME280;15662;49.128;8.520;2023-04-07T00:31:27;100429.59;;;14.58;44.98
28428;BME280;15662;49.128;8.520;2023-04-07T00:33:55;100432.94;;;14.63;45.08
28428;BME280;15662;49.128;8.520;2023-04-07T00:36:26;100421.59;;;14.58;44.99
28428;BME280;15662;49.128;8.520;2023-04-07T00:38:55;100426.53;;;14.67;45.05
28428;BME280;15662;49.128;8.520;2023-04-07T00:41:23;100422.09;;;14.68;45.05
28428;BME280;15662;49.128;8.520;2023-04-07T00:43:51;100421.06;;;14.70;45.03
28428;BME280;15662;49.128;8.520;2023-04-07T00:46:21;100402.47;;;14.69;45.00
28428;BME280;15662;49.128;8.520;2023-04-07T00:48:51;100406.88;;;14.70;44.98
28428;BME280;15662;49.128;8.520;2023-04-07T00:51:20;100388.25;;;14.68;44.94
28428;BME280;15662;49.128;8.520;2023-04-07T00:53:49;100390.94;;;14.68;45.09
28428;BME280;15662;49.128;8.520;2023-04-07T00:56:17;100393.53;;;14.70;44.96
28428;BME280;15662;49.128;8.520;2023-04-07T00:58:45;100404.13;;;14.71;45.13
28428;BME280;15662;49.128;8.520;2023-04-07T01:01:22;100385.41;;;14.73;45.15
28428;BME280;15662;49.128;8.520;2023-04-07T01:03:58;100382.78;;;14.71;45.09
28428;BME280;15662;49.128;8.520;2023-04-07T01:06:34;100383.63;;;14.72;45.18
28428;BME280;15662;49.128;8.520;2023-04-07T01:09:12;100382.78;;;14.71;45.11
28428;BME280;15662;49.128;8.520;2023-04-07T01:14:40;100364.09;;;14.71;45.23
28428;BME280;15662;49.128;8.520;2023-04-07T01:17:27;100373.13;;;14.69;45.17
28428;BME280;15662;49.128;8.520;2023-04-07T01:20:01;100360.44;;;14.74;45.26
28428;BME280;15662;49.128;8.520;2023-04-07T01:22:46;100365.03;;;14.70;45.24
28428;BME280;15662;49.128;8.520;2023-04-07T01:31:54;100360.91;;;14.63;45.33
28428;BME280;15662;49.128;8.520;2023-04-07T01:34:25;100363.63;;;14.62;45.30
28428;BME280;15662;49.128;8.520;2023-04-07T01:36:54;100363.63;;;14.62;45.39
28428;BME280;15662;49.128;8.520;2023-04-07T01:39:26;100349.56;;;14.58;45.46
28428;BME280;15662;49.128;8.520;2023-04-07T01:41:56;100359.31;;;14.59;45.43
28428;BME280;15662;49.128;8.520;2023-04-07T01:44:25;100342.47;;;14.57;45.45
28428;BME280;15662;49.128;8.520;2023-04-07T01:46:55;100358.97;;;14.67;45.53
28428;BME280;15662;49.128;8.520;2023-04-07T01:49:24;100342.94;;;14.67;45.38
28428;BME280;15662;49.128;8.520;2023-04-07T01:51:54;100343.78;;;14.69;45.45
28428;BME280;15662;49.128;8.520;2023-04-07T01:54:25;100343.91;;;14.66;45.50
28428;BME280;15662;49.128;8.520;2023-04-07T01:56:53;100336.63;;;14.69;45.65
28428;BME280;15662;49.128;8.520;2023-04-07T01:59:23;100338.63;;;14.64;45.58
28428;BME280;15662;49.128;8.520;2023-04-07T02:01:51;100337.63;;;14.67;45.65
28428;BME280;15662;49.128;8.520;2023-04-07T02:07:23;100343.34;;;14.58;45.68
28428;BME280;15662;49.128;8.520;2023-04-07T02:09:56;100326.66;;;14.53;45.68
28428;BME280;15662;49.128;8.520;2023-04-07T02:12:28;100322.28;;;14.52;45.67
28428;BME280;15662;49.128;8.520;2023-04-07T02:15:10;100330.91;;;14.58;45.71
28428;BME280;15662;49.128;8.520;2023-04-07T02:17:43;100325.63;;;14.57;45.96
28428;BME280;15662;49.128;8.520;2023-04-07T02:20:13;100329.03;;;14.60;45.72
28428;BME280;15662;49.128;8.520;2023-04-07T02:22:42;100331.69;;;14.60;45.68
28428;BME280;15662;49.128;8.520;2023-04-07T02:25:28;100324.63;;;14.59;45.67
28428;BME280;15662;49.128;8.520;2023-04-07T02:27:59;100336.00;;;14.63;45.67
28428;BME280;15662;49.128;8.520;2023-04-07T02:30:27;100336.94;;;14.62;45.64
28428;BME280;15662;49.128;8.520;2023-04-07T02:32:56;100327.97;;;14.64;45.71
28428;BME280;15662;49.128;8.520;2023-04-07T02:35:24;100327.88;;;14.66;45.64
28428;BME280;15662;49.128;8.520;2023-04-07T02:37:52;100319.03;;;14.65;45.79
28428;BME280;15662;49.128;8.520;2023-04-07T02:40:20;100319.97;;;14.64;45.74
28428;BME280;15662;49.128;8.520;2023-04-07T02:42:48;100316.63;;;14.59;45.74
28428;BME280;15662;49.128;8.520;2023-04-07T02:45:16;100315.81;;;14.57;45.74
28428;BME280;15662;49.128;8.520;2023-04-07T02:47:44;100309.59;;;14.57;45.87
28428;BME280;15662;49.128;8.520;2023-04-07T02:50:12;100314.06;;;14.56;45.82
28428;BME280;15662;49.128;8.520;2023-04-07T02:52:40;100308.91;;;14.53;45.94
28428;BME280;15662;49.128;8.520;2023-04-07T02:55:12;100301.09;;;14.49;45.93
28428;BME280;15662;49.128;8.520;2023-04-07T02:57:41;100309.09;;;14.47;46.08
28428;BME280;15662;49.128;8.520;2023-04-07T03:00:24;100300.59;;;14.39;46.13
28428;BME280;15662;49.128;8.520;2023-04-07T03:03:01;100304.31;;;14.35;46.20
28428;BME280;15662;49.128;8.520;2023-04-07T03:05:32;100312.56;;;14.29;46.26
28428;BME280;15662;49.128;8.520;2023-04-07T03:08:01;100305.75;;;14.22;46.37
28428;BME280;15662;49.128;8.520;2023-04-07T03:10:30;100306.69;;;14.20;46.55
28428;BME280;15662;49.128;8.520;2023-04-07T03:12:58;100308.66;;;14.15;46.60
28428;BME280;15662;49.128;8.520;2023-04-07T03:15:26;100314.06;;;14.14;46.69
28428;BME280;15662;49.128;8.520;2023-04-07T03:17:54;100301.84;;;14.08;46.75
28428;BME280;15662;49.128;8.520;2023-04-07T03:20:23;100302.84;;;14.06;46.93
28428;BME280;15662;49.128;8.520;2023-04-07T03:22:51;100298.50;;;14.03;46.87
28428;BME280;15662;49.128;8.520;2023-04-07T03:25:26;100294.00;;;14.05;46.86
28428;BME280;15662;49.128;8.520;2023-04-07T03:27:54;100295.72;;;14.06;47.10
28428;BME280;15662;49.128;8.520;2023-04-07T03:30:24;100284.97;;;14.08;47.29
28428;BME280;15662;49.128;8.520;2023-04-07T03:32:52;100283.06;;;14.11;47.14
28428;BME280;15662;49.128;8.520;2023-04-07T03:35:21;100292.75;;;14.14;47.17
28428;BME280;15662;49.128;8.520;2023-04-07T03:37:49;100279.66;;;14.08;47.20
28428;BME280;15662;49.128;8.520;2023-04-07T03:40:18;100289.19;;;14.13;47.22
28428;BME280;15662;49.128;8.520;2023-04-07T03:42:47;100288.41;;;14.11;47.22
28428;BME280;15662;49.128;8.520;2023-04-07T03:45:17;100284.13;;;14.07;47.32
28428;BME280;15662;49.128;8.520;2023-04-07T03:47:50;100294.78;;;14.07;47.35
28428;BME280;15662;49.128;8.520;2023-04-07T03:50:18;100295.97;;;14.00;47.40
28428;BME280;15662;49.128;8.520;2023-04-07T03:52:53;100297.13;;;13.93;47.14
28428;BME280;15662;49.128;8.520;2023-04-07T03:55:26;100297.47;;;13.85;47.19
28428;BME280;15662;49.128;8.520;2023-04-07T03:58:00;100285.25;;;13.80;47.21
28428;BME280;15662;49.128;8.520;2023-04-07T04:00:31;100290.75;;;13.53;47.33
28428;BME280;15662;49.128;8.520;2023-04-07T04:03:06;100298.38;;;13.62;47.23
28428;BME280;15662;49.128;8.520;2023-04-07T04:05:38;100295.59;;;13.65;47.28
28428;BME280;15662;49.128;8.520;2023-04-07T04:08:08;100282.47;;;13.61;47.39
28428;BME280;15662;49.128;8.520;2023-04-07T04:10:39;100274.72;;;13.55;47.46
28428;BME280;15662;49.128;8.520;2023-04-07T04:13:09;100280.28;;;13.49;47.52
28428;BME280;15662;49.128;8.520;2023-04-07T04:15:38;100276.06;;;13.43;48.06
28428;BME280;15662;49.128;8.520;2023-04-07T04:18:11;100277.06;;;13.40;48.12
28428;BME280;15662;49.128;8.520;2023-04-07T04:20:39;100292.16;;;13.40;47.92
28428;BME280;15662;49.128;8.520;2023-04-07T04:23:07;100284.19;;;13.40;48.12
28428;BME280;15662;49.128;8.520;2023-04-07T04:25:36;100291.97;;;13.45;48.11
28428;BME280;15662;49.128;8.520;2023-04-07T04:28:08;100298.91;;;13.49;48.31
28428;BME280;15662;49.128;8.520;2023-04-07T04:30:36;100291.00;;;13.47;48.29
28428;BME280;15662;49.128;8.520;2023-04-07T04:33:04;100291.22;;;13.41;48.26
28428;BME280;15662;49.128;8.520;2023-04-07T04:36:18;100298.63;;;13.33;48.47
28428;BME280;15662;49.128;8.520;2023-04-07T04:38:46;100284.69;;;13.26;48.63
28428;BME280;15662;49.128;8.520;2023-04-07T04:41:17;100297.06;;;13.27;48.69
28428;BME280;15662;49.128;8.520;2023-04-07T04:43:46;100283.06;;;13.22;48.78
28428;BME280;15662;49.128;8.520;2023-04-07T04:46:18;100298.13;;;13.23;48.80
28428;BME280;15662;49.128;8.520;2023-04-07T04:48:47;100292.91;;;13.20;48.88
28428;BME280;15662;49.128;8.520;2023-04-07T04:51:17;100292.94;;;13.18;48.80
28428;BME280;15662;49.128;8.520;2023-04-07T04:53:49;100298.22;;;13.20;48.97
28428;BME280;15662;49.128;8.520;2023-04-07T04:56:18;100303.53;;;13.20;49.07
28428;BME280;15662;49.128;8.520;2023-04-07T04:58:48;100300.72;;;13.25;49.15
28428;BME280;15662;49.128;8.520;2023-04-07T05:01:28;100302.56;;;13.23;48.98
28428;BME280;15662;49.128;8.520;2023-04-07T05:04:06;100300.84;;;13.22;48.89
28428;BME280;15662;49.128;8.520;2023-04-07T05:06:41;100302.50;;;13.24;48.88
28428;BME280;15662;49.128;8.520;2023-04-07T05:09:11;100299.97;;;13.20;48.90
28428;BME280;15662;49.128;8.520;2023-04-07T05:11:43;100303.25;;;13.28;48.95
28428;BME280;15662;49.128;8.520;2023-04-07T05:14:11;100296.16;;;13.28;49.22
28428;BME280;15662;49.128;8.520;2023-04-07T05:16:43;100309.28;;;13.33;49.24
28428;BME280;15662;49.128;8.520;2023-04-07T05:19:17;100314.59;;;13.33;49.18
28428;BME280;15662;49.128;8.520;2023-04-07T05:21:46;100311.84;;;13.36;49.04
28428;BME280;15662;49.128;8.520;2023-04-07T05:24:14;100308.94;;;13.42;49.18
28428;BME280;15662;49.128;8.520;2023-04-07T05:26:45;100309.72;;;13.44;49.33
28428;BME280;15662;49.128;8.520;2023-04-07T05:29:13;100314.78;;;13.52;49.34
28428;BME280;15662;49.128;8.520;2023-04-07T05:31:43;100307.53;;;13.55;49.35
28428;BME280;15662;49.128;8.520;2023-04-07T05:34:14;100309.09;;;13.61;49.33
28428;BME280;15662;49.128;8.520;2023-04-07T05:36:48;100319.56;;;13.65;49.21
28428;BME280;15662;49.128;8.520;2023-04-07T05:39:16;100319.50;;;13.67;49.52
28428;BME280;15662;49.128;8.520;2023-04-07T05:41:45;100319.41;;;13.70;49.42
28428;BME280;15662;49.128;8.520;2023-04-07T05:44:14;100321.88;;;13.75;49.27
28428;BME280;15662;49.128;8.520;2023-04-07T05:46:43;100319.94;;;13.78;49.61
28428;BME280;15662;49.128;8.520;2023-04-07T05:49:11;100311.16;;;13.76;49.55
28428;BME280;15662;49.128;8.520;2023-04-07T05:51:51;100311.03;;;13.79;49.53
28428;BME280;15662;49.128;8.520;2023-04-07T05:54:19;100310.97;;;13.81;49.56
28428;BME280;15662;49.128;8.520;2023-04-07T05:56:49;100312.69;;;13.82;49.52
28428;BME280;15662;49.128;8.520;2023-04-07T05:59:17;100319.66;;;13.86;49.48
28428;BME280;15662;49.128;8.520;2023-04-07T06:01:46;100317.66;;;13.91;49.41
28428;BME280;15662;49.128;8.520;2023-04-07T06:04:14;100322.81;;;13.96;49.50
28428;BME280;15662;49.128;8.520;2023-04-07T06:06:47;100319.22;;;13.97;49.54
28428;BME280;15662;49.128;8.520;2023-04-07T06:09:15;100314.63;;;14.00;49.53
28428;BME280;15662;49.128;8.520;2023-04-07T06:11:42;100317.28;;;14.00;49.61
28428;BME280;15662;49.128;8.520;2023-04-07T06:14:10;100320.69;;;14.04;49.67
28428;BME280;15662;49.128;8.520;2023-04-07T06:16:38;100317.97;;;14.05;49.71
28428;BME280;15662;49.128;8.520;2023-04-07T06:19:11;100310.03;;;14.04;49.74
28428;BME280;15662;49.128;8.520;2023-04-07T06:21:39;100318.78;;;14.07;49.75
28428;BME280;15662;49.128;8.520;2023-04-07T06:24:07;100320.38;;;14.11;49.68
28428;BME280;15662;49.128;8.520;2023-04-07T06:26:35;100323.72;;;14.16;49.59
28428;BME280;15662;49.128;8.520;2023-04-07T06:29:03;100306.94;;;14.14;49.61
28428;BME280;15662;49.128;8.520;2023-04-07T06:31:31;100309.28;;;14.22;49.70
28428;BME280;15662;49.128;8.520;2023-04-07T06:33:59;100320.56;;;14.29;49.58
28428;BME280;15662;49.128;8.520;2023-04-07T06:36:28;100316.63;;;14.37;49.63
28428;BME280;15662;49.128;8.520;2023-04-07T06:38:56;100307.72;;;14.38;49.62
28428;BME280;15662;49.128;8.520;2023-04-07T06:41:25;100310.81;;;14.50;49.61
28428;BME280;15662;49.128;8.520;2023-04-07T06:43:54;100307.75;;;14.59;49.92
28428;BME280;15662;49.128;8.520;2023-04-07T06:46:22;100302.16;;;14.65;49.81
28428;BME280;15662;49.128;8.520;2023-04-07T06:48:50;100307.09;;;14.74;49.75
28428;BME280;15662;49.128;8.520;2023-04-07T06:51:18;100303.06;;;14.84;49.56
28428;BME280;15662;49.128;8.520;2023-04-07T06:53:46;100299.38;;;14.87;49.54
28428;BME280;15662;49.128;8.520;2023-04-07T06:56:15;100306.25;;;14.92;49.38
28428;BME280;15662;49.128;8.520;2023-04-07T06:58:43;100314.06;;;14.97;49.25
28428;BME280;15662;49.128;8.520;2023-04-07T07:01:11;100311.91;;;15.05;48.92
28428;BME280;15662;49.128;8.520;2023-04-07T07:03:39;100313.59;;;15.08;48.88
28428;BME280;15662;49.128;8.520;2023-04-07T07:06:07;100313.72;;;15.05;48.70
28428;BME280;15662;49.128;8.520;2023-04-07T07:08:35;100301.38;;;15.02;48.52
28428;BME280;15662;49.128;8.520;2023-04-07T07:11:03;100309.13;;;15.08;48.38
28428;BME280;15662;49.128;8.520;2023-04-07T07:13:32;100318.78;;;15.11;48.23
28428;BME280;15662;49.128;8.520;2023-04-07T07:16:01;100304.44;;;15.13;48.08
28428;BME280;15662;49.128;8.520;2023-04-07T07:18:30;100306.16;;;15.14;48.03
28428;BME280;15662;49.128;8.520;2023-04-07T07:20:58;100305.00;;;15.20;47.97
28428;BME280;15662;49.128;8.520;2023-04-07T07:23:26;100304.16;;;15.19;48.04
28428;BME280;15662;49.128;8.520;2023-04-07T07:25:55;100306.63;;;15.24;48.01
28428;BME280;15662;49.128;8.520;2023-04-07T07:28:23;100296.59;;;15.29;47.87
28428;BME280;15662;49.128;8.520;2023-04-07T07:30:50;100291.91;;;15.34;47.99
28428;BME280;15662;49.128;8.520;2023-04-07T07:33:18;100292.63;;;15.38;48.09
28428;BME280;15662;49.128;8.520;2023-04-07T07:35:46;100303.88;;;15.44;48.00
28428;BME280;15662;49.128;8.520;2023-04-07T07:38:15;100296.00;;;15.41;47.82
28428;BME280;15662;49.128;8.520;2023-04-07T07:40:44;100312.63;;;15.48;47.77
28428;BME280;15662;49.128;8.520;2023-04-07T07:43:14;100303.03;;;15.44;47.92
28428;BME280;15662;49.128;8.520;2023-04-07T07:45:42;100311.38;;;15.55;48.03
28428;BME280;15662;49.128;8.520;2023-04-07T07:48:09;100318.31;;;15.59;48.12
28428;BME280;15662;49.128;8.520;2023-04-07T07:50:38;100315.38;;;15.65;48.02
28428;BME280;15662;49.128;8.520;2023-04-07T07:53:06;100309.81;;;15.70;48.23
28428;BME280;15662;49.128;8.520;2023-04-07T07:55:33;100312.38;;;15.73;48.02
28428;BME280;15662;49.128;8.520;2023-04-07T07:58:01;100316.47;;;15.80;47.87
28428;BME280;15662;49.128;8.520;2023-04-07T08:00:29;100306.28;;;15.88;48.01
28428;BME280;15662;49.128;8.520;2023-04-07T08:02:57;100308.00;;;15.89;47.93
28428;BME280;15662;49.128;8.520;2023-04-07T08:05:25;100317.31;;;15.99;47.83
28428;BME280;15662;49.128;8.520;2023-04-07T08:07:53;100318.81;;;16.05;47.64
28428;BME280;15662;49.128;8.520;2023-04-07T08:10:22;100312.44;;;16.08;47.70
28428;BME280;15662;49.128;8.520;2023-04-07T08:12:51;100315.69;;;16.14;47.80
28428;BME280;15662;49.128;8.520;2023-04-07T08:15:20;100312.56;;;16.23;47.79
28428;BME280;15662;49.128;8.520;2023-04-07T08:17:50;100319.47;;;16.28;47.80
28428;BME280;15662;49.128;8.520;2023-04-07T08:20:20;100326.09;;;16.38;47.80
28428;BME280;15662;49.128;8.520;2023-04-07T08:22:48;100325.78;;;16.44;47.50
28428;BME280;15662;49.128;8.520;2023-04-07T08:25:16;100332.41;;;16.54;47.52
28428;BME280;15662;49.128;8.520;2023-04-07T08:27:44;100327.53;;;16.62;47.51
28428;BME280;15662;49.128;8.520;2023-04-07T08:30:12;100326.19;;;16.71;47.53
28428;BME280;15662;49.128;8.520;2023-04-07T08:32:43;100320.56;;;16.77;47.11
28428;BME280;15662;49.128;8.520;2023-04-07T08:35:12;100318.50;;;16.82;47.06
28428;BME280;15662;49.128;8.520;2023-04-07T08:37:40;100315.06;;;16.80;46.97
28428;BME280;15662;49.128;8.520;2023-04-07T08:40:09;100325.25;;;16.89;46.83
28428;BME280;15662;49.128;8.520;2023-04-07T08:42:42;100321.72;;;16.89;46.44
28428;BME280;15662;49.128;8.520;2023-04-07T08:45:16;100326.06;;;16.91;46.57
28428;BME280;15662;49.128;8.520;2023-04-07T08:47:48;100328.63;;;16.93;46.25
28428;BME280;15662;49.128;8.520;2023-04-07T08:50:20;100321.41;;;16.95;46.20
28428;BME280;15662;49.128;8.520;2023-04-07T08:52:56;100322.94;;;16.99;46.02
28428;BME280;15662;49.128;8.520;2023-04-07T08:55:27;100333.59;;;17.00;46.04
28428;BME280;15662;49.128;8.520;2023-04-07T08:57:55;100329.03;;;17.02;45.94
28428;BME280;15662;49.128;8.520;2023-04-07T09:00:24;100324.38;;;17.06;45.78
28428;BME280;15662;49.128;8.520;2023-04-07T09:02:52;100323.28;;;17.10;45.59
28428;BME280;15662;49.128;8.520;2023-04-07T09:05:20;100325.75;;;17.13;45.71
28428;BME280;15662;49.128;8.520;2023-04-07T09:07:48;100327.34;;;17.17;45.45
28428;BME280;15662;49.128;8.520;2023-04-07T09:10:16;100336.09;;;17.21;45.36
28428;BME280;15662;49.128;8.520;2023-04-07T09:12:44;100331.25;;;17.27;45.36
28428;BME280;15662;49.128;8.520;2023-04-07T09:15:14;100333.59;;;17.34;45.42
28428;BME280;15662;49.128;8.520;2023-04-07T09:17:42;100330.66;;;17.38;45.42
28428;BME280;15662;49.128;8.520;2023-04-07T09:20:11;100334.75;;;17.45;45.27
28428;BME280;15662;49.128;8.520;2023-04-07T09:22:41;100335.28;;;17.52;45.04
28428;BME280;15662;49.128;8.520;2023-04-07T09:25:22;100330.38;;;17.60;44.90
28428;BME280;15662;49.128;8.520;2023-04-07T09:27:59;100330.00;;;17.66;44.67
28428;BME280;15662;49.128;8.520;2023-04-07T09:30:30;100332.59;;;17.68;44.47
28428;BME280;15662;49.128;8.520;2023-04-07T09:33:00;100332.53;;;17.69;44.45
28428;BME280;15662;49.128;8.520;2023-04-07T09:35:28;100336.47;;;17.79;44.30
28428;BME280;15662;49.128;8.520;2023-04-07T09:38:07;100330.34;;;17.93;44.18
28428;BME280;15662;49.128;8.520;2023-04-07T09:40:36;100340.69;;;17.99;44.30
28428;BME280;15662;49.128;8.520;2023-04-07T09:43:05;100340.19;;;18.09;43.86
28428;BME280;15662;49.128;8.520;2023-04-07T09:45:33;100334.19;;;18.19;44.16
28428;BME280;15662;49.128;8.520;2023-04-07T09:48:08;100334.00;;;18.38;43.97
28428;BME280;15662;49.128;8.520;2023-04-07T09:50:44;100331.44;;;18.51;43.78
28428;BME280;15662;49.128;8.520;2023-04-07T09:53:17;100336.72;;;18.68;43.39
28428;BME280;15662;49.128;8.520;2023-04-07T09:55:50;100328.59;;;18.84;43.32
28428;BME280;15662;49.128;8.520;2023-04-07T09:58:18;100332.06;;;19.00;43.39
28428;BME280;15662;49.128;8.520;2023-04-07T10:00:47;100332.19;;;19.13;42.52
28428;BME280;15662;49.128;8.520;2023-04-07T10:03:16;100344.94;;;19.24;42.40
28428;BME280;15662;49.128;8.520;2023-04-07T10:05:46;100341.69;;;19.33;42.26
28428;BME280;15662;49.128;8.520;2023-04-07T10:08:15;100343.00;;;19.40;41.83
28428;BME280;15662;49.128;8.520;2023-04-07T10:10:43;100347.94;;;19.48;41.48
28428;BME280;15662;49.128;8.520;2023-04-07T10:13:12;100348.50;;;19.53;41.58
28428;BME280;15662;49.128;8.520;2023-04-07T10:15:40;100342.03;;;19.55;41.34
28428;BME280;15662;49.128;8.520;2023-04-07T10:18:08;100336.88;;;19.52;41.07
28428;BME280;15662;49.128;8.520;2023-04-07T10:20:39;100335.56;;;19.59;40.75
28428;BME280;15662;49.128;8.520;2023-04-07T10:26:42;100334.22;;;19.67;41.02
28428;BME280;15662;49.128;8.520;2023-04-07T10:29:12;100338.72;;;19.80;40.66
28428;BME280;15662;49.128;8.520;2023-04-07T10:31:42;100335.91;;;19.82;40.47
28428;BME280;15662;49.128;8.520;2023-04-07T10:34:11;100336.94;;;19.94;40.55
28428;BME280;15662;49.128;8.520;2023-04-07T10:37:12;100336.03;;;20.07;39.91
28428;BME280;15662;49.128;8.520;2023-04-07T10:39:41;100336.22;;;20.04;40.07
28428;BME280;15662;49.128;8.520;2023-04-07T10:45:07;100338.91;;;20.04;39.98
28428;BME280;15662;49.128;8.520;2023-04-07T10:50:30;100322.06;;;19.88;39.52
28428;BME280;15662;49.128;8.520;2023-04-07T10:53:13;100329.44;;;19.99;39.16
28428;BME280;15662;49.128;8.520;2023-04-07T10:55:46;100334.31;;;20.06;38.95
28428;BME280;15662;49.128;8.520;2023-04-07T10:58:30;100325.72;;;20.14;39.25
28428;BME280;15662;49.128;8.520;2023-04-07T11:03:50;100316.31;;;20.34;38.70
28428;BME280;15662;49.128;8.520;2023-04-07T11:06:20;100332.09;;;20.40;39.31
28428;BME280;15662;49.128;8.520;2023-04-07T11:08:48;100322.81;;;20.44;38.85
28428;BME280;15662;49.128;8.520;2023-04-07T11:11:39;100320.34;;;20.41;38.18
28428;BME280;15662;49.128;8.520;2023-04-07T11:14:10;100326.59;;;20.42;38.84
28428;BME280;15662;49.128;8.520;2023-04-07T11:16:51;100327.97;;;20.34;38.67
28428;BME280;15662;49.128;8.520;2023-04-07T11:19:22;100324.63;;;20.31;38.46
28428;BME280;15662;49.128;8.520;2023-04-07T11:22:15;100326.53;;;20.29;38.09
28428;BME280;15662;49.128;8.520;2023-04-07T11:24:56;100332.75;;;20.17;38.51
28428;BME280;15662;49.128;8.520;2023-04-07T11:27:25;100330.06;;;20.17;38.51
28428;BME280;15662;49.128;8.520;2023-04-07T11:29:56;100333.72;;;20.16;38.54
28428;BME280;15662;49.128;8.520;2023-04-07T11:32:24;100321.53;;;20.10;38.30
28428;BME280;15662;49.128;8.520;2023-04-07T11:34:55;100332.63;;;20.18;38.47
28428;BME280;15662;49.128;8.520;2023-04-07T11:37:25;100339.28;;;20.13;38.32
28428;BME280;15662;49.128;8.520;2023-04-07T11:39:56;100350.25;;;20.09;38.14
28428;BME280;15662;49.128;8.520;2023-04-07T11:42:38;100349.41;;;19.95;37.85
28428;BME280;15662;49.128;8.520;2023-04-07T11:45:16;100350.41;;;19.79;38.02
28428;BME280;15662;49.128;8.520;2023-04-07T11:47:44;100356.28;;;19.72;38.27
28428;BME280;15662;49.128;8.520;2023-04-07T11:50:13;100361.19;;;19.65;38.22
28428;BME280;15662;49.128;8.520;2023-04-07T11:52:47;100356.16;;;19.59;38.18
28428;BME280;15662;49.128;8.520;2023-04-07T11:55:20;100359.25;;;19.53;38.47
28428;BME280;15662;49.128;8.520;2023-04-07T11:57:50;100371.25;;;19.47;38.43
28428;BME280;15662;49.128;8.520;2023-04-07T12:00:19;100370.88;;;19.39;38.39
28428;BME280;15662;49.128;8.520;2023-04-07T12:02:49;100366.34;;;19.25;38.62
28428;BME280;15662;49.128;8.520;2023-04-07T12:05:18;100373.75;;;19.22;38.68
28428;BME280;15662;49.128;8.520;2023-04-07T12:07:53;100375.19;;;19.27;38.94
28428;BME280;15662;49.128;8.520;2023-04-07T12:10:23;100369.88;;;19.26;38.84
28428;BME280;15662;49.128;8.520;2023-04-07T12:12:54;100377.56;;;19.18;38.71
28428;BME280;15662;49.128;8.520;2023-04-07T12:15:25;100381.84;;;19.06;38.93
28428;BME280;15662;49.128;8.520;2023-04-07T12:17:53;100381.97;;;19.04;39.15
28428;BME280;15662;49.128;8.520;2023-04-07T12:20:23;100376.47;;;19.06;39.26
28428;BME280;15662;49.128;8.520;2023-04-07T12:22:50;100385.13;;;19.11;39.11
28428;BME280;15662;49.128;8.520;2023-04-07T12:25:20;100393.28;;;19.10;38.78
28428;BME280;15662;49.128;8.520;2023-04-07T12:27:48;100381.38;;;18.99;38.93
28428;BME280;15662;49.128;8.520;2023-04-07T12:30:16;100394.69;;;19.01;39.04
28428;BME280;15662;49.128;8.520;2023-04-07T12:32:43;100389.44;;;18.99;39.08
28428;BME280;15662;49.128;8.520;2023-04-07T12:35:11;100390.22;;;19.01;38.90
28428;BME280;15662;49.128;8.520;2023-04-07T12:37:39;100391.84;;;19.04;38.95
28428;BME280;15662;49.128;8.520;2023-04-07T12:40:08;100396.06;;;19.08;38.81
28428;BME280;15662;49.128;8.520;2023-04-07T12:42:37;100387.06;;;19.09;39.07
28428;BME280;15662;49.128;8.520;2023-04-07T12:45:05;100393.13;;;19.13;39.05
28428;BME280;15662;49.128;8.520;2023-04-07T12:47:33;100384.66;;;19.19;39.10
28428;BME280;15662;49.128;8.520;2023-04-07T12:50:02;100385.72;;;19.30;38.98
28428;BME280;15662;49.128;8.520;2023-04-07T12:52:30;100384.31;;;19.39;38.75
28428;BME280;15662;49.128;8.520;2023-04-07T12:54:58;100391.69;;;19.36;38.29
28428;BME280;15662;49.128;8.520;2023-04-07T12:57:26;100383.16;;;19.29;38.56
28428;BME280;15662;49.128;8.520;2023-04-07T12:59:57;100385.34;;;19.22;38.40
28428;BME280;15662;49.128;8.520;2023-04-07T13:02:26;100389.66;;;19.25;38.22
28428;BME280;15662;49.128;8.520;2023-04-07T13:04:54;100392.34;;;19.25;38.47
28428;BME280;15662;49.128;8.520;2023-04-07T13:07:22;100398.50;;;19.27;38.18
28428;BME280;15662;49.128;8.520;2023-04-07T13:09:50;100390.53;;;19.25;38.10
28428;BME280;15662;49.128;8.520;2023-04-07T13:12:18;100401.97;;;19.29;38.19
28428;BME280;15662;49.128;8.520;2023-04-07T13:14:47;100391.09;;;19.30;38.27
28428;BME280;15662;49.128;8.520;2023-04-07T13:17:27;100393.50;;;19.35;38.09
28428;BME280;15662;49.128;8.520;2023-04-07T13:19:55;100385.25;;;19.38;38.24
28428;BME280;15662;49.128;8.520;2023-04-07T13:22:24;100390.94;;;19.48;38.40
28428;BME280;15662;49.128;8.520;2023-04-07T13:24:52;100395.34;;;19.49;38.15
28428;BME280;15662;49.128;8.520;2023-04-07T13:27:19;100394.78;;;19.44;37.96
28428;BME280;15662;49.128;8.520;2023-04-07T13:29:48;100400.81;;;19.47;38.07
28428;BME280;15662;49.128;8.520;2023-04-07T13:32:15;100403.81;;;19.43;38.19